This is the latest recevied weather packets stored in our database for station/object KB1FFS. If no packets are shown the sender has not sent any weather packets the latest 1 day(s).
| Time | Temp. | Humidity | Pressure | Rain* | Wind** | Luminosity | Snow |
|---|---|---|---|---|---|---|---|
| 1778022181 | 27.78° C | 53% | 1006.1 hPa | 0 mm | 1.34 m/s, 329° | 96 W/m² | - |
| 1778021877 | 28.33° C | 53% | 1006.1 hPa | 0 mm | 0.45 m/s, 145° | 118 W/m² | - |
| 1778021575 | 28.33° C | 52% | 1005.9 hPa | 0 mm | 0 m/s | 109 W/m² | - |
| 1778021269 | 28.89° C | 50% | 1005.6 hPa | 0 mm | 1.34 m/s, 34° | 127 W/m² | - |
| 1778020967 | 29.44° C | 51% | 1005.5 hPa | 0 mm | 0 m/s | 129 W/m² | - |
| 1778020665 | 29.44° C | 51% | 1005.5 hPa | 0 mm | 0 m/s | 183 W/m² | - |
| 1778020361 | 29.44° C | 51% | 1005.6 hPa | 0 mm | 0.89 m/s, 195° | 476 W/m² | - |
| 1778020057 | 30° C | 50% | 1005.4 hPa | 0 mm | 0 m/s | 137 W/m² | - |
| 1778019753 | 30° C | 50% | 1005.3 hPa | 0 mm | 0.45 m/s, 215° | 179 W/m² | - |
| 1778019450 | 30.56° C | 49% | 1005.3 hPa | 0 mm | 0 m/s | 228 W/m² | - |
| 1778019147 | 30.56° C | 48% | 1005 hPa | 0 mm | 0.89 m/s, 166° | 255 W/m² | - |
| 1778018844 | 31.11° C | 46% | 1005 hPa | 0 mm | 0.89 m/s, 281° | 269 W/m² | - |
| 1778018542 | 31.11° C | 45% | 1005 hPa | 0 mm | 0 m/s | 241 W/m² | - |
| 1778018240 | 31.11° C | 42% | 1005 hPa | 0 mm | 0.45 m/s, 272° | 260 W/m² | - |
| 1778017937 | 31.67° C | 41% | 1004.7 hPa | 0 mm | 0.89 m/s, 200° | 295 W/m² | - |
| 1778017635 | 32.22° C | 40% | 1005.1 hPa | 0 mm | 0.89 m/s, 241° | 318 W/m² | - |
| 1778017332 | 32.22° C | 40% | 1005.2 hPa | 0 mm | 0.45 m/s, 295° | 271 W/m² | - |
| 1778017029 | 32.78° C | 40% | 1005.2 hPa | 0 mm | 0.89 m/s, 172° | 219 W/m² | - |
| 1778016726 | 33.33° C | 38% | 1005.2 hPa | 0 mm | 0 m/s | 612 W/m² | - |
| 1778016422 | 32.78° C | 41% | 1005 hPa | 0 mm | 0 m/s | 418 W/m² | - |
| 1778016120 | 32.78° C | 41% | 1005 hPa | 0 mm | 1.34 m/s, 257° | 581 W/m² | - |
| 1778015816 | 33.33° C | 39% | 1005 hPa | 0 mm | 0.89 m/s, 263° | 481 W/m² | - |
| 1778015514 | 33.33° C | 40% | 1005 hPa | 0 mm | 0.89 m/s, 318° | 742 W/m² | - |
| 1778015210 | 35° C | 38% | 1005.2 hPa | 0 mm | 0.89 m/s, 353° | 322 W/m² | - |
| 1778014907 | 34.44° C | 42% | 1005 hPa | 0 mm | 0 m/s | 705 W/m² | - |
* Rain latest hour (hover to see other rain measurements)
** Current wind speed in m/s (hover to see current wind gust speed)